Time;durP1;ratioP1;P1;durP2;ratioP2;P2;SDS_P1;SDS_P2;PMS_P1;PMS_P2;Temp;Humidity;BMP_temperature;BMP_pressure;BME280_temperature;BME280_humidity;BME280_pressure;Samples;Min_cycle;Max_cycle;Signal;HPM_P1;HPM_P2
2022/06/08 00:02:21;;;;;;;5.87;1.52;;;;;;;19.65;53.71;99358.02;1753144;81;21013;-68
2022/06/08 00:04:48;;;;;;;2.95;1.47;;;;;;;19.66;53.52;99356.86;1753515;81;21157;-69
2022/06/08 00:07:22;;;;;;;5.40;2.10;;;;;;;19.66;53.12;99357.44;1755248;81;21075;-69
2022/06/08 00:09:50;;;;;;;4.92;2.02;;;;;;;19.65;53.15;99362.84;1767058;80;21292;-70
2022/06/08 00:12:22;;;;;;;4.47;2.00;;;;;;;19.64;53.11;99359.23;1762173;80;21001;-69
2022/06/08 00:14:48;;;;;;;2.02;1.70;;;;;;;19.63;53.22;99361.02;1757697;80;21501;-68
2022/06/08 00:17:17;;;;;;;7.42;1.70;;;;;;;19.63;53.25;99357.63;1767505;80;21047;-69
2022/06/08 00:19:46;;;;;;;2.85;1.55;;;;;;;19.61;53.49;99357.21;1767067;80;21043;-69
2022/06/08 00:22:13;;;;;;;3.37;1.70;;;;;;;19.59;53.68;99353.99;1766247;80;21122;-69
2022/06/08 00:24:39;;;;;;;3.45;1.90;;;;;;;19.59;53.54;99353.99;1762745;80;21572;-69
2022/06/08 00:27:09;;;;;;;4.05;1.60;;;;;;;19.58;53.39;99355.97;1766893;80;21007;-69
2022/06/08 00:29:37;;;;;;;2.67;1.50;;;;;;;19.57;53.39;99356.36;1768484;80;21552;-70
2022/06/08 00:32:11;;;;;;;3.90;1.70;;;;;;;19.56;53.45;99354.77;1767429;80;21078;-69
2022/06/08 00:34:40;;;;;;;2.72;1.47;;;;;;;19.55;53.22;99357.37;1766432;80;21472;-70
2022/06/08 00:37:08;;;;;;;2.72;1.80;;;;;;;19.54;53.50;99352.95;1767473;80;20981;-69
2022/06/08 00:39:37;;;;;;;2.42;1.47;;;;;;;;;;1768279;80;21138;-70
2022/06/08 00:42:11;;;;;;;3.52;2.05;;;;;;;19.49;53.99;99351.91;1765903;80;21079;-70
2022/06/08 00:45:15;;;;;;;4.58;1.77;;;;;;;19.45;54.27;99351.28;1768278;80;21008;-70
2022/06/08 00:47:59;;;;;;;2.42;1.57;;;;;;;19.42;55.04;99345.66;1772247;80;21142;-70
2022/06/08 00:50:44;;;;;;;4.50;1.95;;;;;;;19.36;55.41;99343.02;1764776;80;21003;-71
2022/06/08 00:53:12;;;;;;;3.93;2.03;;;;;;;19.31;55.77;99346.97;1767712;80;21047;-71
2022/06/08 00:55:39;;;;;;;4.83;1.60;;;;;;;19.25;56.41;99347.09;1768060;80;21858;-71
2022/06/08 00:58:13;;;;;;;5.35;2.10;;;;;;;19.19;56.81;99344.65;1755977;80;20996;-70
2022/06/08 01:00:42;;;;;;;2.20;1.45;;;;;;;19.12;57.24;99339.59;1766435;80;21083;-71
2022/06/08 01:03:14;;;;;;;7.17;1.72;;;;;;;19.06;57.75;99341.89;1766879;80;20993;-70
2022/06/08 01:05:47;;;;;;;4.28;2.02;;;;;;;19.00;58.25;99339.24;1763353;80;21063;-71
2022/06/08 01:08:40;;;;;;;3.30;2.05;;;;;;;18.92;58.60;99332.80;1765796;80;21048;-70
2022/06/08 01:11:35;;;;;;;1.75;1.62;;;;;;;18.86;58.95;99336.50;1767335;80;21051;-70
2022/06/08 01:14:05;;;;;;;2.50;1.77;;;;;;;18.76;58.96;99331.59;1762859;81;21046;-70
2022/06/08 01:16:32;;;;;;;5.62;2.00;;;;;;;18.67;59.10;99336.89;1763552;80;20993;-68
2022/06/08 01:19:03;;;;;;;6.80;1.72;;;;;;;18.61;59.34;99339.20;1740620;81;21020;-70
2022/06/08 01:21:44;;;;;;;1.95;1.70;;;;;;;18.58;59.61;99339.15;1764202;81;21231;-69
2022/06/08 01:24:13;;;;;;;5.92;2.00;;;;;;;18.52;59.76;99335.09;1761272;81;21052;-69
2022/06/08 01:27:32;;;;;;;4.17;1.60;;;;;;;18.47;60.06;99330.66;1762606;81;21056;-69
2022/06/08 01:30:23;;;;;;;7.20;2.10;;;;;;;18.42;60.31;99334.59;1762771;80;21594;-70
2022/06/08 01:33:20;;;;;;;7.80;2.62;;;;;;;18.37;60.52;99339.89;1761034;80;21079;-70
2022/06/08 01:36:18;;;;;;;3.62;1.98;;;;;;;18.32;60.68;99336.03;1760506;81;21092;-71
2022/06/08 01:39:09;;;;;;;2.75;2.00;;;;;;;18.22;60.88;99334.72;1693050;83;21520;-69
2022/06/08 01:42:12;;;;;;;4.05;1.85;;;;;;;18.15;61.25;99330.42;1761846;81;21032;-69
2022/06/08 01:45:28;;;;;;;3.22;2.20;;;;;;;18.07;61.85;99328.11;1759061;81;21013;-70
2022/06/08 01:48:42;;;;;;;2.80;2.00;;;;;;;18.00;62.13;99330.20;1753770;80;21078;-69
2022/06/08 01:52:05;;;;;;;6.12;2.20;;;;;;;17.96;62.24;99336.91;1755965;81;20986;-70
2022/06/08 01:55:07;;;;;;;5.67;2.27;;;;;;;17.90;62.36;99332.23;1753830;81;21015;-69
2022/06/08 01:58:04;;;;;;;4.05;2.35;;;;;;;17.87;62.66;99335.77;1726438;81;21001;-71
2022/06/08 02:00:34;;;;;;;5.22;2.08;;;;;;;17.85;62.69;99337.55;1757776;81;21081;-71
2022/06/08 02:03:33;;;;;;;4.55;1.90;;;;;;;17.79;62.82;99332.67;1759164;80;21011;-70
2022/06/08 02:06:26;;;;;;;2.95;2.20;;;;;;;17.77;63.03;99333.05;1755528;81;21277;-70
2022/06/08 02:09:08;;;;;;;2.90;2.33;;;;;;;17.74;63.24;99331.80;1753532;80;21467;-70
2022/06/08 02:11:46;;;;;;;3.47;2.42;;;;;;;17.74;63.49;99333.80;1766823;80;21011;-69
2022/06/08 02:14:22;;;;;;;6.55;2.12;;;;;;;17.74;63.66;99337.97;1765842;80;21004;-70
2022/06/08 02:16:58;;;;;;;4.50;2.37;;;;;;;17.74;63.79;99337.97;1765112;80;21039;-70
2022/06/08 02:19:35;;;;;;;6.58;2.15;;;;;;;17.72;63.68;99343.92;1762765;80;21142;-69
2022/06/08 02:22:18;;;;;;;2.72;2.35;;;;;;;17.70;63.83;99336.52;1766443;80;21134;-71
2022/06/08 02:24:53;;;;;;;3.80;2.62;;;;;;;17.70;64.16;99335.70;1766716;80;21016;-70
2022/06/08 02:27:32;;;;;;;4.22;2.00;;;;;;;17.69;64.35;99340.47;1766618;80;21087;-70
2022/06/08 02:30:07;;;;;;;3.37;2.17;;;;;;;17.70;64.53;99342.09;1765777;80;21122;-69
2022/06/08 02:35:39;;;;;;;9.48;2.37;;;;;;;17.69;64.66;99340.47;1764210;80;20984;-70
2022/06/08 02:38:10;;;;;;;3.02;2.25;;;;;;;17.70;65.00;99346.84;1766691;80;21497;-69
2022/06/08 02:40:41;;;;;;;2.90;1.98;;;;;;;17.70;65.26;99343.48;1766655;80;21028;-70
2022/06/08 02:43:16;;;;;;;2.00;1.80;;;;;;;17.72;65.64;99348.68;1760700;80;21012;-69
2022/06/08 02:45:49;;;;;;;3.02;2.02;;;;;;;17.73;65.71;99348.30;1766302;80;20961;-71
2022/06/08 02:48:19;;;;;;;3.98;2.30;;;;;;;17.77;65.78;99352.55;1766811;80;21040;-70
2022/06/08 02:50:56;;;;;;;5.08;2.00;;;;;;;17.81;66.00;99347.03;1763248;80;21039;-69
2022/06/08 02:53:33;;;;;;;4.05;2.20;;;;;;;17.86;66.09;99354.47;1763843;80;21020;-70
2022/06/08 02:56:31;;;;;;;7.08;2.87;;;;;;;17.92;66.26;99351.36;1766147;80;21643;-70
2022/06/08 02:59:19;;;;;;;3.40;1.98;;;;;;;17.98;66.09;99354.06;1768468;80;22228;-71
2022/06/08 03:02:13;;;;;;;3.27;2.25;;;;;;;18.04;66.21;99354.53;1768654;80;21000;-69
2022/06/08 03:04:49;;;;;;;9.95;2.55;;;;;;;18.09;66.79;99355.02;1767198;80;21345;-71
2022/06/08 03:07:23;;;;;;;6.62;2.42;;;;;;;18.15;67.04;99350.55;1762882;80;20988;-70
2022/06/08 03:09:52;;;;;;;3.15;2.35;;;;;;;18.20;67.22;99346.05;1761777;80;20992;-71
2022/06/08 03:12:35;;;;;;;7.33;2.80;;;;;;;18.28;66.49;99349.72;1763736;81;21130;-71
2022/06/08 03:15:05;;;;;;;7.65;2.83;;;;;;;18.36;65.72;99350.03;1763874;81;21536;-70
2022/06/08 03:17:36;;;;;;;8.33;2.90;;;;;;;18.45;64.87;99353.94;1763746;81;21492;-70
2022/06/08 03:20:07;;;;;;;3.85;2.72;;;;;;;18.56;64.50;99348.52;1759986;81;21037;-71
2022/06/08 03:22:43;;;;;;;3.83;2.75;;;;;;;18.66;64.09;99350.64;1764513;81;20996;-69
2022/06/08 03:25:15;;;;;;;6.25;2.35;;;;;;;18.77;63.44;99344.36;1739101;81;21241;-70
2022/06/08 03:27:53;;;;;;;7.08;2.75;;;;;;;18.89;62.77;99350.27;1736402;81;21466;-70
2022/06/08 03:30:22;;;;;;;4.50;2.65;;;;;;;18.96;62.41;99344.20;1738814;80;21008;-70
2022/06/08 03:32:48;;;;;;;10.88;3.27;;;;;;;19.02;62.51;99343.86;1746054;81;21031;-71
2022/06/08 03:35:16;;;;;;;4.17;2.58;;;;;;;19.07;62.31;99342.90;1760582;80;21019;-71
2022/06/08 03:37:46;;;;;;;5.12;2.50;;;;;;;19.12;62.17;99350.18;1762210;81;21258;-70
2022/06/08 03:40:13;;;;;;;4.20;2.08;;;;;;;19.16;62.53;99346.81;1761396;81;21571;-71
2022/06/08 03:42:42;;;;;;;7.17;2.80;;;;;;;19.23;62.18;99350.89;1763147;81;20987;-71
2022/06/08 03:45:12;;;;;;;4.92;2.72;;;;;;;19.26;62.42;99348.10;1760054;81;21107;-70
2022/06/08 03:47:45;;;;;;;5.53;2.30;;;;;;;19.34;62.54;99346.20;1763470;81;21025;-71
2022/06/08 03:50:15;;;;;;;9.18;2.85;;;;;;;19.42;62.34;99350.66;1763131;81;21130;-71
2022/06/08 03:52:48;;;;;;;5.62;2.85;;;;;;;19.49;61.61;99347.13;1733331;81;21072;-71
2022/06/08 03:55:19;;;;;;;4.50;2.22;;;;;;;19.56;61.63;99353.37;1763107;81;21020;-70
2022/06/08 03:57:49;;;;;;;3.20;1.67;;;;;;;19.59;62.27;99349.80;1762506;80;20997;-70
2022/06/08 04:00:19;;;;;;;3.05;2.12;;;;;;;19.61;62.11;99355.00;1737781;81;21075;-71
2022/06/08 04:02:58;;;;;;;3.10;2.00;;;;;;;19.63;63.02;99352.05;1762931;81;21061;-70
2022/06/08 04:05:29;;;;;;;7.78;1.87;;;;;;;19.71;63.84;99354.30;1758781;81;21017;-71
2022/06/08 04:07:56;;;;;;;9.30;2.00;;;;;;;19.77;63.37;99355.53;1763770;81;21064;-71
2022/06/08 04:10:30;;;;;;;4.20;2.30;;;;;;;19.87;63.42;99352.63;1764683;79;21000;-70
2022/06/08 04:12:57;;;;;;;2.58;1.90;;;;;;;19.99;63.50;99353.50;1763850;80;21036;-71
2022/06/08 04:15:42;;;;;;;5.53;2.45;;;;;;;20.09;62.18;99351.41;1762897;81;21153;-71
2022/06/08 04:18:21;;;;;;;5.15;1.80;;;;;;;20.21;60.99;99357.86;1753557;81;21094;-70
2022/06/08 04:20:56;;;;;;;4.22;1.75;;;;;;;20.34;61.49;99359.72;1763405;81;21500;-69
2022/06/08 04:23:29;;;;;;;2.10;1.60;;;;;;;20.43;61.33;99355.41;1761172;81;21465;-70
2022/06/08 04:25:58;;;;;;;1.22;1.12;;;;;;;20.53;60.55;99355.83;1763578;81;21512;-69
2022/06/08 04:28:30;;;;;;;;;;;;;;;20.62;59.12;99357.69;1764553;81;21126;-69
2022/06/08 04:30:59;;;;;;;2.90;1.10;;;;;;;20.71;57.47;99362.12;1725112;81;20462;-70
2022/06/08 04:33:28;;;;;;;19.42;3.10;;;;;;;20.79;56.75;99364.55;1746480;81;21510;-70
2022/06/08 04:36:00;;;;;;;4.03;1.65;;;;;;;20.88;56.38;99361.36;1764279;80;20936;-70
2022/06/08 04:38:28;;;;;;;5.42;1.32;;;;;;;20.98;55.92;99360.44;1756842;81;21040;-69
2022/06/08 04:40:56;;;;;;;2.12;1.30;;;;;;;21.06;55.65;99359.25;1758677;81;21086;-70
2022/06/08 04:43:23;;;;;;;2.25;1.30;;;;;;;21.14;54.39;99361.46;1764432;81;21053;-70
2022/06/08 04:45:54;;;;;;;3.77;1.52;;;;;;;21.22;53.89;99360.27;1762983;81;21048;-69
2022/06/08 04:48:21;;;;;;;3.35;1.57;;;;;;;21.30;53.47;99365.31;1732325;81;21032;-69
2022/06/08 04:50:53;;;;;;;2.27;1.45;;;;;;;21.38;53.30;99364.12;1771969;80;21493;-70
2022/06/08 04:53:20;;;;;;;1.72;1.45;;;;;;;21.48;53.43;99369.53;1735875;81;21777;-71
2022/06/08 04:55:47;;;;;;;2.92;1.40;;;;;;;21.58;53.14;99368.55;1762974;81;20996;-70
2022/06/08 04:58:20;;;;;;;6.05;1.57;;;;;;;21.67;53.14;99369.53;1764344;81;21012;-70
2022/06/08 05:00:45;;;;;;;2.90;1.37;;;;;;;21.74;52.98;99366.73;1742612;81;21469;-69
2022/06/08 05:03:16;;;;;;;4.72;1.52;;;;;;;21.81;52.70;99361.75;1730311;81;21055;-69
2022/06/08 05:05:45;;;;;;;2.08;1.37;;;;;;;21.89;52.91;99371.76;1763130;81;20977;-71
2022/06/08 05:08:20;;;;;;;2.37;1.22;;;;;;;21.97;53.16;99376.16;1759237;81;21822;-71
2022/06/08 05:10:50;;;;;;;2.67;1.40;;;;;;;22.06;52.95;99376.37;1762735;80;21040;-70
2022/06/08 05:13:21;;;;;;;3.30;1.45;;;;;;;22.13;52.59;99371.54;1763972;80;21504;-70
2022/06/08 05:15:53;;;;;;;1.98;1.40;;;;;;;22.20;51.95;99369.91;1764201;80;21048;-71
2022/06/08 05:18:24;;;;;;;5.05;1.40;;;;;;;22.21;52.28;99368.73;1763865;80;20992;-68
2022/06/08 05:20:53;;;;;;;1.90;1.30;;;;;;;22.19;52.32;99373.34;1763088;81;20985;-69
2022/06/08 05:23:27;;;;;;;2.87;1.75;;;;;;;22.15;51.27;99377.34;1762998;81;21001;-69
2022/06/08 05:25:56;;;;;;;5.25;1.50;;;;;;;22.11;50.74;99373.13;1759875;81;21257;-69
2022/06/08 05:28:23;;;;;;;3.60;1.32;;;;;;;22.08;51.06;99375.34;1763477;81;21037;-69
2022/06/08 05:30:56;;;;;;;3.30;1.40;;;;;;;22.05;50.74;99376.16;1762581;80;21425;-70
2022/06/08 05:33:28;;;;;;;2.52;1.30;;;;;;;22.06;51.01;99381.36;1731586;81;21044;-69
2022/06/08 05:35:58;;;;;;;4.50;1.50;;;;;;;22.06;50.96;99369.36;1759824;80;20969;-70
2022/06/08 05:38:27;;;;;;;6.92;1.80;;;;;;;22.10;51.32;99370.14;1757217;81;20984;-71
2022/06/08 05:40:56;;;;;;;2.33;1.05;;;;;;;22.15;52.12;99373.94;1733675;81;21067;-70
2022/06/08 05:43:24;;;;;;;3.02;1.50;;;;;;;22.21;51.72;99369.51;1757470;80;21120;-72
2022/06/08 05:45:55;;;;;;;6.08;1.67;;;;;;;22.29;52.67;99367.50;1719578;82;21047;-71
2022/06/08 05:48:23;;;;;;;3.33;1.45;;;;;;;22.40;52.62;99373.07;1756393;81;21057;-71
2022/06/08 05:50:50;;;;;;;5.40;1.22;;;;;;;22.53;52.63;99371.24;1758112;81;21075;-70
2022/06/08 05:53:21;;;;;;;6.17;1.45;;;;;;;22.65;52.28;99369.43;1757291;80;21051;-71
2022/06/08 05:55:51;;;;;;;3.35;1.17;;;;;;;22.77;51.23;99370.98;1757202;80;22348;-72
2022/06/08 05:58:18;;;;;;;4.85;1.75;;;;;;;22.89;50.89;99368.92;1759710;81;21454;-72
2022/06/08 06:00:49;;;;;;;4.05;1.60;;;;;;;22.98;50.02;99370.66;1759329;81;21538;-71
2022/06/08 06:03:20;;;;;;;2.70;1.50;;;;;;;23.07;50.65;99365.41;1757842;80;21048;-70
2022/06/08 06:05:52;;;;;;;3.35;1.50;;;;;;;23.17;50.44;99365.75;1756923;81;21079;-70
2022/06/08 06:08:22;;;;;;;5.00;1.52;;;;;;;23.27;49.53;99365.51;1736750;81;21239;-72
2022/06/08 06:10:58;;;;;;;2.80;1.10;;;;;;;23.34;48.91;99356.41;1760343;80;21012;-71
2022/06/08 06:13:37;;;;;;;4.75;1.20;;;;;;;23.42;47.12;99354.99;1762096;80;21055;-70
2022/06/08 06:16:07;;;;;;;1.12;1.00;;;;;;;23.46;46.47;99353.74;1762484;80;21032;-69
2022/06/08 06:18:40;;;;;;;1.37;1.15;;;;;;;23.53;46.48;99352.89;1758331;80;21021;-72
2022/06/08 06:21:25;;;;;;;4.72;1.10;;;;;;;23.62;46.79;99359.45;1761178;80;21093;-68
2022/06/08 06:23:58;;;;;;;2.62;1.12;;;;;;;23.73;46.81;99358.57;1728800;80;21040;-70
2022/06/08 06:26:45;;;;;;;5.17;1.10;;;;;;;23.81;46.68;99353.87;1758775;80;21405;-69
2022/06/08 06:29:16;;;;;;;4.83;1.32;;;;;;;23.90;46.16;99351.19;1758971;80;21005;-71
2022/06/08 06:31:58;;;;;;;1.90;1.05;;;;;;;23.98;46.78;99348.50;1694490;80;21059;-69
2022/06/08 06:34:32;;;;;;;1.30;1.17;;;;;;;24.07;46.31;99351.60;1759523;80;21140;-70
2022/06/08 06:37:01;;;;;;;1.87;1.00;;;;;;;24.15;44.31;99352.34;1766257;80;21008;-69
2022/06/08 06:39:32;;;;;;;3.17;1.00;;;;;;;24.18;43.74;99352.13;1767887;80;21048;-69
2022/06/08 06:42:00;;;;;;;2.80;1.25;;;;;;;24.23;44.26;99352.28;1763854;80;21020;-70
2022/06/08 06:44:28;;;;;;;1.57;0.95;;;;;;;24.30;44.65;99353.61;1764631;80;21031;-69
2022/06/08 06:47:02;;;;;;;4.58;1.20;;;;;;;24.38;44.17;99352.94;1766125;80;21039;-68
2022/06/08 06:49:33;;;;;;;2.45;1.07;;;;;;;24.46;44.32;99351.64;1762803;80;21066;-69
2022/06/08 06:52:05;;;;;;;5.60;1.35;;;;;;;24.53;44.67;99352.94;1767115;80;21103;-70
2022/06/08 06:54:33;;;;;;;3.95;1.37;;;;;;;24.61;43.46;99348.64;1766961;80;21087;-69
2022/06/08 06:57:02;;;;;;;2.20;1.00;;;;;;;24.70;43.07;99351.75;1765729;80;21113;-70
2022/06/08 06:59:30;;;;;;;1.60;1.00;;;;;;;24.76;43.48;99350.66;1765958;80;21205;-69
2022/06/08 07:01:57;;;;;;;1.32;0.80;;;;;;;24.87;43.41;99351.94;1732834;80;21024;-69
2022/06/08 07:04:27;;;;;;;2.87;1.47;;;;;;;24.96;42.90;99355.67;1763969;80;21095;-69
2022/06/08 07:06:55;;;;;;;2.60;1.37;;;;;;;25.01;42.04;99350.98;1766441;80;21078;-70
2022/06/08 07:09:23;;;;;;;1.10;1.00;;;;;;;25.01;41.80;99353.16;1764795;80;21027;-71
2022/06/08 07:11:50;;;;;;;1.40;1.12;;;;;;;25.04;41.69;99354.35;1765044;80;21835;-71
2022/06/08 07:14:26;;;;;;;3.60;1.10;;;;;;;25.12;41.88;99346.58;1737486;80;21011;-71
2022/06/08 07:17:00;;;;;;;4.60;1.20;;;;;;;25.19;41.19;99342.86;1767350;80;21043;-70
2022/06/08 07:19:30;;;;;;;5.10;1.22;;;;;;;25.26;41.87;99347.80;1767390;80;21564;-71
2022/06/08 07:21:57;;;;;;;4.72;0.90;;;;;;;25.34;42.30;99344.24;1765437;80;20976;-69
2022/06/08 07:24:32;;;;;;;6.50;1.27;;;;;;;25.42;41.69;99348.37;1765148;80;21528;-70
2022/06/08 07:27:00;;;;;;;5.35;1.30;;;;;;;25.47;41.68;99338.79;1765136;80;21045;-70
2022/06/08 07:29:29;;;;;;;1.77;0.90;;;;;;;25.56;41.28;99343.09;1760983;80;21082;-70
2022/06/08 07:31:58;;;;;;;2.30;1.30;;;;;;;25.63;41.80;99347.20;1743006;80;21529;-70
2022/06/08 07:34:29;;;;;;;2.33;1.10;;;;;;;25.72;40.92;99351.73;1765129;80;21012;-71
2022/06/08 07:36:59;;;;;;;2.37;1.15;;;;;;;25.80;40.31;99338.89;1767287;80;20969;-71
2022/06/08 07:39:27;;;;;;;3.02;1.00;;;;;;;25.87;41.07;99338.77;1768972;80;21076;-70
2022/06/08 07:41:55;;;;;;;2.55;1.42;;;;;;;25.96;41.22;99339.02;1765581;80;21059;-70
2022/06/08 07:44:27;;;;;;;1.62;1.00;;;;;;;26.04;40.02;99335.44;1763866;80;21581;-69
2022/06/08 07:46:56;;;;;;;2.00;1.00;;;;;;;26.09;39.34;99341.19;1766266;80;21048;-71
2022/06/08 07:49:37;;;;;;;2.35;1.10;;;;;;;26.12;38.64;99338.91;1765395;80;21059;-70
2022/06/08 07:52:17;;;;;;;1.67;1.17;;;;;;;26.15;38.48;99339.48;1761934;80;21008;-69
2022/06/08 07:54:50;;;;;;;2.42;1.15;;;;;;;26.24;39.76;99341.11;1761979;80;21012;-70
2022/06/08 07:57:27;;;;;;;1.82;1.07;;;;;;;26.41;40.02;99340.44;1761060;80;21076;-71
2022/06/08 07:59:56;;;;;;;1.25;0.98;;;;;;;26.56;38.21;99348.00;1767630;80;21064;-70
2022/06/08 08:02:22;;;;;;;1.17;0.93;;;;;;;26.68;37.91;99340.89;1772409;80;21110;-70
2022/06/08 08:04:50;;;;;;;1.12;0.93;;;;;;;26.77;38.24;99338.89;1765492;80;21020;-70
2022/06/08 08:07:20;;;;;;;3.08;1.30;;;;;;;26.86;38.83;99348.97;1765440;80;21031;-69
2022/06/08 08:09:49;;;;;;;1.75;1.07;;;;;;;26.97;37.55;99342.45;1766526;80;21005;-69
2022/06/08 08:12:21;;;;;;;2.33;1.10;;;;;;;27.09;37.47;99345.89;1766135;80;21008;-71
2022/06/08 08:14:50;;;;;;;1.77;1.62;;;;;;;27.20;36.42;99345.63;1762095;80;21610;-69
2022/06/08 08:17:19;;;;;;;2.85;1.37;;;;;;;27.31;35.90;99343.97;1763898;80;21052;-69
2022/06/08 08:19:48;;;;;;;3.42;1.10;;;;;;;27.38;36.14;99350.06;1748323;80;21029;-69
2022/06/08 08:22:20;;;;;;;2.08;1.52;;;;;;;27.43;35.50;99345.30;1745433;80;21084;-70
2022/06/08 08:24:49;;;;;;;1.47;1.30;;;;;;;27.46;35.77;99346.63;1739850;80;21544;-70
2022/06/08 08:27:22;;;;;;;2.35;1.20;;;;;;;27.51;34.78;99340.25;1760721;80;20996;-70
2022/06/08 08:29:51;;;;;;;4.62;1.30;;;;;;;27.48;35.55;99345.37;1757425;80;21002;-71
2022/06/08 08:32:18;;;;;;;2.65;1.17;;;;;;;27.44;35.62;99349.09;1764675;80;21075;-72
2022/06/08 08:34:45;;;;;;;5.65;1.20;;;;;;;27.46;35.56;99340.17;1754857;80;21014;-71
2022/06/08 08:37:13;;;;;;;2.17;1.30;;;;;;;27.51;35.21;99343.08;1760941;80;21085;-70
2022/06/08 08:39:40;;;;;;;1.98;1.30;;;;;;;27.58;36.79;99341.49;1755493;80;22002;-71
2022/06/08 08:42:23;;;;;;;5.55;1.55;;;;;;;27.65;36.32;99335.66;1760200;80;21507;-69
2022/06/08 08:45:13;;;;;;;4.67;1.22;;;;;;;27.67;35.03;99337.41;1737196;81;21061;-70
2022/06/08 08:48:09;;;;;;;2.42;1.30;;;;;;;27.59;34.96;99331.15;1727120;80;21010;-71
2022/06/08 08:51:00;;;;;;;3.60;1.35;;;;;;;27.49;34.83;99332.81;1760425;80;21576;-69
2022/06/08 08:53:46;;;;;;;1.40;1.20;;;;;;;27.42;35.27;99329.55;1759448;80;21670;-69
2022/06/08 08:56:20;;;;;;;1.95;1.20;;;;;;;27.33;35.94;99331.60;1746595;80;21050;-70
2022/06/08 08:58:50;;;;;;;7.22;1.27;;;;;;;27.30;36.64;99327.61;1761190;80;21087;-70
2022/06/08 09:01:30;;;;;;;3.40;1.27;;;;;;;27.32;37.63;99321.52;1762962;80;21135;-71
2022/06/08 09:04:32;;;;;;;1.82;1.22;;;;;;;27.37;37.58;99322.40;1757978;80;21560;-70
2022/06/08 09:07:17;;;;;;;2.15;1.10;;;;;;;27.47;38.68;99324.78;1753647;80;21461;-72
2022/06/08 09:09:53;;;;;;;1.80;1.20;;;;;;;27.56;37.21;99315.67;1758197;80;21038;-70
2022/06/08 09:12:28;;;;;;;4.30;1.12;;;;;;;27.59;35.76;99321.86;1748760;80;21079;-72
2022/06/08 09:15:03;;;;;;;29.20;4.35;;;;;;;27.52;35.94;99319.23;1725210;82;21072;-70
2022/06/08 09:17:40;;;;;;;4.70;1.30;;;;;;;27.45;37.11;99315.33;1735734;81;21027;-71
2022/06/08 09:20:18;;;;;;;7.30;1.45;;;;;;;27.33;36.21;99314.64;1739339;81;21610;-68
2022/06/08 09:22:49;;;;;;;1.77;1.30;;;;;;;27.27;36.93;99312.14;1726522;81;21065;-69
2022/06/08 09:25:33;;;;;;;5.08;1.50;;;;;;;27.34;36.12;99311.97;1745948;81;21036;-69
2022/06/08 09:28:01;;;;;;;9.05;1.70;;;;;;;27.45;36.31;99308.25;1746262;81;21036;-69
2022/06/08 09:30:35;;;;;;;2.83;1.40;;;;;;;27.61;36.36;99306.66;1745266;81;21032;-67
2022/06/08 09:33:28;;;;;;;2.80;1.17;;;;;;;27.66;36.69;99308.14;1727679;82;21080;-67
2022/06/08 09:36:02;;;;;;;4.08;1.40;;;;;;;27.63;36.48;99310.45;1730361;81;21050;-69
2022/06/08 09:38:53;;;;;;;1.87;1.30;;;;;;;27.62;37.13;99308.23;1741405;81;21052;-72
2022/06/08 09:41:36;;;;;;;3.50;1.27;;;;;;;27.68;37.92;99305.67;1678396;81;21627;-68
2022/06/08 09:44:13;;;;;;;3.40;1.30;;;;;;;27.77;37.99;99300.84;1728181;81;21040;-68
2022/06/08 09:53:05;;;;;;;1.42;1.10;;;;;;;27.57;34.86;99298.88;1664034;84;20310;-68
2022/06/08 09:55:56;;;;;;;2.20;1.65;;;;;;;27.45;35.60;99294.72;1744786;81;20997;-67
2022/06/08 09:58:45;;;;;;;19.37;2.17;;;;;;;27.44;36.57;99299.61;1751084;80;21040;-66
2022/06/08 10:01:32;;;;;;;4.03;1.57;;;;;;;27.45;37.55;99294.11;1745060;81;21591;-67
2022/06/08 10:04:37;;;;;;;1.77;1.12;;;;;;;27.45;37.13;99296.94;1736755;81;21059;-68
2022/06/08 10:07:21;;;;;;;8.83;1.60;;;;;;;27.42;37.14;99293.59;1752385;81;20996;-67
2022/06/08 10:10:22;;;;;;;4.97;1.32;;;;;;;27.40;37.53;99296.70;1742915;81;21034;-68
2022/06/08 10:13:02;;;;;;;3.85;1.52;;;;;;;27.37;37.66;99299.78;1752632;80;21084;-68
2022/06/08 10:15:43;;;;;;;3.95;1.47;;;;;;;27.40;38.23;99296.70;1754129;81;21599;-68
2022/06/08 10:18:46;;;;;;;3.25;1.22;;;;;;;27.50;38.60;99288.53;1756630;81;20984;-68
2022/06/08 10:21:17;;;;;;;3.70;1.32;;;;;;;27.67;39.26;99286.48;1753912;81;21003;-65
2022/06/08 10:24:15;;;;;;;4.60;1.50;;;;;;;27.80;37.00;99279.52;1745069;81;21103;-68
2022/06/08 10:26:57;;;;;;;2.45;1.25;;;;;;;27.89;35.90;99272.42;1757766;81;21018;-68
2022/06/08 10:30:06;;;;;;;3.27;1.37;;;;;;;27.90;35.82;99269.76;1759018;80;21583;-68
2022/06/08 10:32:51;;;;;;;4.72;1.20;;;;;;;28.00;36.93;99269.28;1756176;81;21044;-68
2022/06/08 10:35:46;;;;;;;6.50;1.50;;;;;;;28.00;35.19;99274.33;1752589;80;21007;-69
2022/06/08 10:38:29;;;;;;;3.40;1.60;;;;;;;27.95;35.03;99265.77;1756112;81;21493;-68
2022/06/08 10:44:00;;;;;;;2.37;1.30;;;;;;;27.84;35.63;99265.28;1752501;80;21324;-71
2022/06/08 10:46:47;;;;;;;2.83;1.35;;;;;;;27.81;35.71;99263.32;1755177;81;21071;-69
2022/06/08 10:49:33;;;;;;;1.87;1.27;;;;;;;27.90;37.35;99260.66;1753462;81;21449;-69
2022/06/08 10:52:25;;;;;;;3.30;1.30;;;;;;;28.07;37.23;99251.49;1738794;81;21340;-70
2022/06/08 10:55:17;;;;;;;4.95;1.30;;;;;;;28.23;36.08;99254.09;1758710;81;21013;-71
2022/06/08 10:57:53;;;;;;;1.55;1.12;;;;;;;28.36;36.41;99256.16;1751474;81;21143;-70
2022/06/08 11:00:28;;;;;;;7.47;1.50;;;;;;;28.55;35.46;99258.02;1756620;80;21070;-69
2022/06/08 11:03:03;;;;;;;4.33;1.27;;;;;;;28.71;35.98;99256.34;1737143;80;21109;-70
2022/06/08 11:05:46;;;;;;;3.67;1.12;;;;;;;28.85;34.60;99252.24;1754210;81;21054;-70
2022/06/08 11:08:23;;;;;;;1.30;0.90;;;;;;;28.90;32.73;99257.34;1756501;81;21035;-69
2022/06/08 11:10:56;;;;;;;3.33;1.07;;;;;;;28.88;33.33;99251.33;1755250;81;21261;-72
2022/06/08 11:13:30;;;;;;;2.95;1.62;;;;;;;28.88;34.29;99251.97;1756415;80;21068;-71
2022/06/08 11:16:11;;;;;;;2.47;1.15;;;;;;;28.92;32.87;99250.61;1755438;80;21500;-69
2022/06/08 11:18:49;;;;;;;2.83;1.25;;;;;;;28.91;32.80;99251.86;1753935;81;21091;-71
2022/06/08 11:22:00;;;;;;;1.20;0.85;;;;;;;28.85;32.73;99252.24;1752501;81;21089;-70
2022/06/08 11:24:48;;;;;;;9.63;2.45;;;;;;;28.75;32.24;99244.88;1754273;80;21044;-69
2022/06/08 11:27:28;;;;;;;15.25;2.40;;;;;;;28.59;33.55;99251.45;1707778;81;21034;-70
2022/06/08 11:30:16;;;;;;;2.00;1.10;;;;;;;28.49;33.63;99249.89;1751279;81;21523;-69
2022/06/08 11:32:54;;;;;;;1.95;1.00;;;;;;;28.53;34.04;99250.59;1750960;81;21513;-68
2022/06/08 11:35:41;;;;;;;3.02;1.40;;;;;;;28.59;32.35;99248.00;1752321;81;21040;-70
2022/06/08 11:38:36;;;;;;;11.30;1.77;;;;;;;28.71;33.63;99241.38;1753301;81;22198;-69
2022/06/08 11:41:30;;;;;;;3.60;1.12;;;;;;;28.88;34.34;99237.80;1755714;81;21055;-70
2022/06/08 11:44:11;;;;;;;1.85;0.95;;;;;;;29.08;33.28;99239.00;1754862;80;20999;-70
2022/06/08 11:46:48;;;;;;;3.70;1.22;;;;;;;29.23;32.70;99234.25;1748021;80;21065;-70
2022/06/08 11:49:38;;;;;;;2.40;1.05;;;;;;;29.32;31.68;99237.20;1754704;80;21007;-70
2022/06/08 11:52:31;;;;;;;3.10;0.98;;;;;;;29.34;31.48;99231.07;1752777;81;21102;-68
2022/06/08 11:55:12;;;;;;;0.80;0.80;;;;;;;29.43;31.99;99233.98;1747098;81;21000;-69
2022/06/08 11:58:00;;;;;;;1.30;1.05;;;;;;;29.45;30.84;99228.65;1760952;80;21161;-69
2022/06/08 12:00:35;;;;;;;4.28;1.17;;;;;;;29.42;31.83;99224.52;1757118;80;21024;-69
2022/06/08 12:03:19;;;;;;;4.80;0.95;;;;;;;29.47;31.79;99216.84;1760994;80;21043;-70
2022/06/08 12:05:51;;;;;;;2.50;1.10;;;;;;;29.52;30.95;99220.52;1757976;81;21336;-70
2022/06/08 12:08:42;;;;;;;4.53;1.30;;;;;;;29.51;31.93;99216.10;1756216;81;21071;-70
2022/06/08 12:11:11;;;;;;;4.50;1.17;;;;;;;29.52;32.46;99218.48;1754877;81;20989;-70
2022/06/08 12:13:53;;;;;;;1.65;0.93;;;;;;;29.66;32.06;99218.45;1760835;80;21091;-70
2022/06/08 12:16:34;;;;;;;5.83;1.40;;;;;;;29.77;32.20;99211.75;1760572;80;21555;-69
2022/06/08 12:19:18;;;;;;;4.70;1.27;;;;;;;29.86;30.61;99213.25;1758984;80;21149;-69
2022/06/08 12:21:51;;;;;;;5.35;1.10;;;;;;;29.91;30.81;99213.92;1759146;80;21067;-70
2022/06/08 12:24:22;;;;;;;7.60;1.22;;;;;;;29.91;30.95;99213.92;1732754;80;21114;-70
2022/06/08 12:27:06;;;;;;;8.70;1.30;;;;;;;30.00;31.00;99218.23;1759422;80;21528;-69
2022/06/08 12:29:59;;;;;;;4.92;1.95;;;;;;;30.10;30.79;99210.56;1757509;80;21009;-69
2022/06/08 12:32:31;;;;;;;2.25;1.17;;;;;;;30.18;31.16;99208.27;1759730;80;21663;-69